createdAt,value
2022-08-21T00:01:48.003Z,22.65
2022-08-21T00:04:20.847Z,22.69
2022-08-21T00:06:51.598Z,22.62
2022-08-21T00:09:22.010Z,22.59
2022-08-21T00:11:50.561Z,22.52
2022-08-21T00:14:18.877Z,22.57
2022-08-21T00:16:47.354Z,22.69
2022-08-21T00:19:15.519Z,22.74
2022-08-21T00:21:44.917Z,22.77
2022-08-21T00:24:13.419Z,22.78
2022-08-21T00:26:44.556Z,22.76
2022-08-21T00:29:12.884Z,22.72
2022-08-21T00:31:41.237Z,22.68
2022-08-21T00:34:10.201Z,22.64
2022-08-21T00:36:38.916Z,22.63
2022-08-21T00:39:09.162Z,22.62
2022-08-21T00:41:40.088Z,22.51
2022-08-21T00:44:12.217Z,22.43
2022-08-21T00:46:41.362Z,22.43
2022-08-21T00:49:12.297Z,22.47
2022-08-21T00:51:44.551Z,22.46
2022-08-21T00:54:18.604Z,22.41
2022-08-21T00:56:50.988Z,22.45
2022-08-21T00:59:22.808Z,22.38
2022-08-21T01:01:53.375Z,22.33
2022-08-21T01:04:22.446Z,22.26
2022-08-21T01:06:50.688Z,22.25
2022-08-21T01:09:20.058Z,22.27
2022-08-21T01:11:49.078Z,22.29
2022-08-21T01:14:19.484Z,22.27
2022-08-21T01:16:52.170Z,22.31
2022-08-21T01:19:23.104Z,22.30
2022-08-21T01:21:53.238Z,22.28
2022-08-21T01:24:21.437Z,22.30
2022-08-21T01:26:51.481Z,22.26
2022-08-21T01:29:32.672Z,22.24
2022-08-21T01:32:06.562Z,22.26
2022-08-21T01:34:36.442Z,22.27
2022-08-21T01:37:06.861Z,22.26
2022-08-21T01:39:36.337Z,22.29
2022-08-21T01:42:05.286Z,22.32
2022-08-21T01:44:33.888Z,22.26
2022-08-21T01:47:05.094Z,22.22
2022-08-21T01:49:33.230Z,22.19
2022-08-21T01:52:01.585Z,22.16
2022-08-21T01:54:31.477Z,22.18
2022-08-21T01:57:00.843Z,22.16
2022-08-21T01:59:29.794Z,22.20
2022-08-21T02:01:58.495Z,22.17
2022-08-21T02:04:26.831Z,22.18
2022-08-21T02:06:55.040Z,22.26
2022-08-21T02:09:24.381Z,22.15
2022-08-21T02:11:54.830Z,22.13
2022-08-21T02:14:32.244Z,22.15
2022-08-21T02:17:05.415Z,22.06
2022-08-21T02:19:39.440Z,22.06
2022-08-21T02:22:09.933Z,22.06
2022-08-21T02:24:55.163Z,22.07
2022-08-21T02:27:26.256Z,22.06
2022-08-21T02:29:55.428Z,22.07
2022-08-21T02:32:23.663Z,22.10
2022-08-21T02:34:51.801Z,22.10
2022-08-21T02:37:20.042Z,22.17
2022-08-21T02:39:48.276Z,22.22
2022-08-21T02:42:16.636Z,22.27
2022-08-21T02:44:46.172Z,22.25
2022-08-21T02:47:14.402Z,22.12
2022-08-21T02:49:42.716Z,22.06
2022-08-21T02:52:11.358Z,22.06
2022-08-21T02:54:40.772Z,22.09
2022-08-21T02:57:09.308Z,22.11
2022-08-21T02:59:37.638Z,21.97
2022-08-21T03:02:07.343Z,21.97
2022-08-21T03:04:35.853Z,21.97
2022-08-21T03:07:03.976Z,21.84
2022-08-21T03:09:34.980Z,21.91
2022-08-21T03:12:03.358Z,22.00
2022-08-21T03:14:31.479Z,21.90
2022-08-21T03:16:59.604Z,21.91
2022-08-21T03:19:29.269Z,21.90
2022-08-21T03:21:57.481Z,21.84
2022-08-21T03:24:25.605Z,21.87
2022-08-21T03:26:53.782Z,21.81
2022-08-21T03:29:21.953Z,21.89
2022-08-21T03:31:50.135Z,21.84
2022-08-21T03:34:18.330Z,21.84
2022-08-21T03:36:47.924Z,21.79
2022-08-21T03:39:16.242Z,21.59
2022-08-21T03:41:44.398Z,21.57
2022-08-21T03:44:13.981Z,21.64
2022-08-21T03:46:42.446Z,21.66
2022-08-21T03:49:10.549Z,21.67
2022-08-21T03:51:38.705Z,21.71
2022-08-21T03:54:08.353Z,21.62
2022-08-21T03:56:37.546Z,21.72
2022-08-21T03:59:05.975Z,21.74
2022-08-21T04:01:34.585Z,21.77
2022-08-21T04:04:02.933Z,21.92
2022-08-21T04:06:35.775Z,21.92
2022-08-21T04:09:07.522Z,21.94
2022-08-21T04:11:35.720Z,22.29
2022-08-21T04:14:03.883Z,22.54
2022-08-21T04:16:32.162Z,22.74
2022-08-21T04:19:00.311Z,22.70
2022-08-21T04:21:28.656Z,22.86
2022-08-21T04:23:57.324Z,22.95
2022-08-21T04:26:26.917Z,23.05
2022-08-21T04:28:56.743Z,23.23
2022-08-21T04:31:24.984Z,23.36
2022-08-21T04:33:53.524Z,23.63
2022-08-21T04:36:24.414Z,23.98
2022-08-21T04:38:52.866Z,24.46
2022-08-21T04:41:27.908Z,24.75
2022-08-21T04:43:58.146Z,25.12
2022-08-21T04:46:26.292Z,25.55
2022-08-21T04:48:54.485Z,25.64
2022-08-21T04:51:27.499Z,26.51
2022-08-21T04:54:02.887Z,27.03
2022-08-21T04:56:36.330Z,27.63
2022-08-21T04:59:13.971Z,28.26
2022-08-21T05:01:43.095Z,28.65
2022-08-21T05:04:14.471Z,29.07
2022-08-21T05:06:46.085Z,29.40
2022-08-21T05:09:16.831Z,29.83
2022-08-21T05:11:45.764Z,30.67
2022-08-21T05:14:15.755Z,30.57
2022-08-21T05:16:45.001Z,29.75
2022-08-21T05:19:13.627Z,28.36
2022-08-21T05:21:44.722Z,28.19
2022-08-21T05:24:13.595Z,28.23
2022-08-21T05:26:45.955Z,28.22
2022-08-21T05:29:18.321Z,27.95
2022-08-21T05:31:47.974Z,27.28
2022-08-21T05:34:17.282Z,27.34
2022-08-21T05:36:45.545Z,28.13
2022-08-21T05:39:13.915Z,28.23
2022-08-21T05:41:42.360Z,28.84
2022-08-21T05:44:11.239Z,29.53
2022-08-21T05:46:41.208Z,30.43
2022-08-21T05:49:09.974Z,31.00
2022-08-21T05:51:38.732Z,31.93
2022-08-21T05:54:07.086Z,32.32
2022-08-21T05:56:35.983Z,33.11
2022-08-21T05:59:04.687Z,31.57
2022-08-21T06:01:37.195Z,33.41
2022-08-21T06:04:08.209Z,34.61
2022-08-21T06:06:36.792Z,34.53
2022-08-21T06:09:05.218Z,34.60
2022-08-21T06:11:34.949Z,33.91
2022-08-21T06:14:03.185Z,33.62
2022-08-21T06:16:31.540Z,34.33
2022-08-21T06:19:02.913Z,34.55
2022-08-21T06:21:32.813Z,35.06
2022-08-21T06:24:01.009Z,36.08
2022-08-21T06:26:29.245Z,36.57
2022-08-21T06:28:57.457Z,36.70
2022-08-21T06:31:28.421Z,37.56
2022-08-21T06:33:56.819Z,37.26
2022-08-21T06:36:25.455Z,35.87
2022-08-21T06:38:54.974Z,35.48
2022-08-21T06:41:27.026Z,35.35
2022-08-21T06:43:56.462Z,35.36
2022-08-21T06:46:25.049Z,36.38
2022-08-21T06:48:53.377Z,35.61
2022-08-21T06:51:21.620Z,34.88
2022-08-21T06:53:49.751Z,35.57
2022-08-21T06:56:19.917Z,32.79
2022-08-21T06:58:48.322Z,31.98
2022-08-21T07:01:16.563Z,31.97
2022-08-21T07:03:45.762Z,33.69
2022-08-21T07:06:14.179Z,32.02
2022-08-21T07:08:42.520Z,32.32
2022-08-21T07:11:14.956Z,33.22
2022-08-21T07:13:44.554Z,33.55
2022-08-21T07:16:12.829Z,34.20
2022-08-21T07:18:40.998Z,31.86
2022-08-21T07:21:09.985Z,33.00
2022-08-21T07:23:40.661Z,31.75
2022-08-21T07:26:12.770Z,31.93
2022-08-21T07:28:41.267Z,32.42
2022-08-21T07:31:14.657Z,33.09
2022-08-21T07:33:43.222Z,31.85
2022-08-21T07:36:12.005Z,30.35
2022-08-21T07:38:40.312Z,30.09
2022-08-21T07:41:18.244Z,29.99
2022-08-21T07:43:46.757Z,29.23
2022-08-21T07:46:16.962Z,28.72
2022-08-21T07:48:45.614Z,28.25
2022-08-21T07:51:16.103Z,28.83
2022-08-21T07:53:45.350Z,27.87
2022-08-21T07:56:13.579Z,27.59
2022-08-21T07:58:41.787Z,27.30
2022-08-21T08:01:10.047Z,27.74
2022-08-21T08:03:40.170Z,27.70
2022-08-21T08:06:13.148Z,26.98
2022-08-21T08:08:41.865Z,26.79
2022-08-21T08:11:11.936Z,27.38
2022-08-21T08:13:45.737Z,27.52
2022-08-21T08:16:14.616Z,27.78
2022-08-21T08:18:45.456Z,28.08
2022-08-21T08:21:14.881Z,27.73
2022-08-21T08:23:45.279Z,27.77
2022-08-21T08:26:13.879Z,27.39
2022-08-21T08:28:42.185Z,27.81
2022-08-21T08:31:10.478Z,28.23
2022-08-21T08:33:38.625Z,27.90
2022-08-21T08:36:15.894Z,27.45
2022-08-21T08:38:44.406Z,26.74
2022-08-21T08:41:16.733Z,27.60
2022-08-21T08:43:51.598Z,28.02
2022-08-21T08:46:25.412Z,28.37
2022-08-21T08:48:56.248Z,28.61
2022-08-21T08:51:32.482Z,28.73
2022-08-21T08:54:04.889Z,28.84
2022-08-21T08:56:35.401Z,28.95
2022-08-21T08:59:12.437Z,29.04
2022-08-21T09:01:40.729Z,28.30
2022-08-21T09:04:09.647Z,28.51
2022-08-21T09:06:53.455Z,28.75
2022-08-21T09:09:32.510Z,28.54
2022-08-21T09:12:07.298Z,28.18
2022-08-21T09:14:49.485Z,28.74
2022-08-21T09:17:36.605Z,28.95
2022-08-21T09:20:17.907Z,28.83
2022-08-21T09:23:11.009Z,29.16
2022-08-21T09:25:48.081Z,28.91
2022-08-21T09:28:16.226Z,28.57
2022-08-21T09:30:44.412Z,28.45
2022-08-21T09:33:17.072Z,28.51
2022-08-21T09:35:58.751Z,28.37
2022-08-21T09:38:32.742Z,28.40
2022-08-21T09:41:03.904Z,28.27
2022-08-21T09:43:33.394Z,28.71
2022-08-21T09:46:08.986Z,28.17
2022-08-21T09:48:46.813Z,28.38
2022-08-21T09:51:17.749Z,28.96
2022-08-21T09:53:50.670Z,29.07
2022-08-21T09:56:48.211Z,29.25
2022-08-21T09:59:20.013Z,29.04
2022-08-21T10:01:51.804Z,29.08
2022-08-21T10:04:24.198Z,29.11
2022-08-21T10:06:53.234Z,29.06
2022-08-21T10:09:28.197Z,29.12
2022-08-21T10:12:11.413Z,29.09
2022-08-21T10:14:53.138Z,29.00
2022-08-21T10:17:29.754Z,29.21
2022-08-21T10:20:06.907Z,29.33
2022-08-21T10:22:44.070Z,29.09
2022-08-21T10:25:21.913Z,29.10
2022-08-21T10:27:59.584Z,28.98
2022-08-21T10:30:41.498Z,29.17
2022-08-21T10:33:24.947Z,29.18
2022-08-21T10:36:02.191Z,29.10
2022-08-21T10:39:17.843Z,28.81
2022-08-21T10:42:14.819Z,28.98
2022-08-21T10:44:51.621Z,28.70
2022-08-21T10:47:28.265Z,28.40
2022-08-21T10:50:06.651Z,27.95
2022-08-21T10:52:47.932Z,28.23
2022-08-21T10:55:19.927Z,28.09
2022-08-21T10:57:52.891Z,27.58
2022-08-21T11:00:24.675Z,27.99
2022-08-21T11:02:58.070Z,27.66
2022-08-21T11:05:33.050Z,28.13
2022-08-21T11:08:07.992Z,28.31
2022-08-21T11:10:51.295Z,28.35
2022-08-21T11:13:36.621Z,27.91
2022-08-21T11:16:11.385Z,28.29
2022-08-21T11:18:42.171Z,27.79
2022-08-21T11:21:28.254Z,27.97
2022-08-21T11:24:05.778Z,27.97
2022-08-21T11:26:40.323Z,27.70
2022-08-21T11:29:16.142Z,27.64
2022-08-21T11:31:58.843Z,28.18
2022-08-21T11:34:49.549Z,28.15
2022-08-21T11:37:25.275Z,28.17
2022-08-21T11:40:02.752Z,28.00
2022-08-21T11:42:40.720Z,28.51
2022-08-21T11:45:22.172Z,28.74
2022-08-21T11:48:02.651Z,29.05
2022-08-21T11:50:36.069Z,28.71
2022-08-21T11:53:11.591Z,28.32
2022-08-21T11:55:46.604Z,27.79
2022-08-21T11:58:23.069Z,27.90
2022-08-21T12:00:58.079Z,28.11
2022-08-21T12:03:30.024Z,28.09
2022-08-21T12:06:01.389Z,28.16
2022-08-21T12:08:33.608Z,28.09
2022-08-21T12:11:06.531Z,27.89
2022-08-21T12:13:40.629Z,27.97
2022-08-21T12:16:14.631Z,28.18
2022-08-21T12:18:43.670Z,28.19
2022-08-21T12:21:26.661Z,27.81
2022-08-21T12:24:05.868Z,27.73
2022-08-21T12:26:36.894Z,27.82
2022-08-21T12:29:15.776Z,28.07
2022-08-21T12:31:56.036Z,28.18
2022-08-21T12:34:28.678Z,28.04
2022-08-21T12:37:01.592Z,27.98
2022-08-21T12:39:32.912Z,27.89
2022-08-21T12:42:07.628Z,27.86
2022-08-21T12:44:42.326Z,27.97
2022-08-21T12:47:19.074Z,28.11
2022-08-21T12:49:58.874Z,28.09
2022-08-21T12:52:36.963Z,28.00
2022-08-21T12:55:08.868Z,27.93
2022-08-21T12:57:39.032Z,27.99
2022-08-21T13:00:12.142Z,27.74
2022-08-21T13:02:48.670Z,27.90
2022-08-21T13:05:29.719Z,27.75
2022-08-21T13:07:58.929Z,27.49
2022-08-21T13:10:30.143Z,27.74
2022-08-21T13:13:01.683Z,27.79
2022-08-21T13:15:47.616Z,27.58
2022-08-21T13:18:26.103Z,27.37
2022-08-21T13:21:04.759Z,27.67
2022-08-21T13:23:33.550Z,27.51
2022-08-21T13:26:03.856Z,27.48
2022-08-21T13:28:38.710Z,27.17
2022-08-21T13:31:11.526Z,27.38
2022-08-21T13:33:43.344Z,27.68
2022-08-21T13:36:16.131Z,27.65
2022-08-21T13:38:46.180Z,27.87
2022-08-21T13:41:26.881Z,27.59
2022-08-21T13:44:00.826Z,27.42
2022-08-21T13:46:31.247Z,27.35
2022-08-21T13:49:01.991Z,26.98
2022-08-21T13:51:30.413Z,27.16
2022-08-21T13:53:58.697Z,27.46
2022-08-21T13:56:30.965Z,27.56
2022-08-21T13:59:00.726Z,27.63
2022-08-21T14:01:31.454Z,27.55
2022-08-21T14:04:06.554Z,27.84
2022-08-21T14:06:37.936Z,27.79
2022-08-21T14:09:11.761Z,28.00
2022-08-21T14:11:40.838Z,27.76
2022-08-21T14:14:21.141Z,27.93
2022-08-21T14:16:57.929Z,28.04
2022-08-21T14:19:29.910Z,28.26
2022-08-21T14:21:58.295Z,27.76
2022-08-21T14:24:35.691Z,27.82
2022-08-21T14:27:07.918Z,27.91
2022-08-21T14:29:39.145Z,27.93
2022-08-21T14:32:21.899Z,27.83
2022-08-21T14:34:58.081Z,27.64
2022-08-21T14:37:27.866Z,27.79
2022-08-21T14:39:56.224Z,27.52
2022-08-21T14:42:25.028Z,27.68
2022-08-21T14:44:53.760Z,27.63
2022-08-21T14:47:23.084Z,27.55
2022-08-21T14:49:51.446Z,27.57
2022-08-21T14:52:20.998Z,27.36
2022-08-21T14:54:49.298Z,27.38
2022-08-21T14:57:17.662Z,27.38
2022-08-21T14:59:46.045Z,27.31
2022-08-21T15:02:14.435Z,27.49
2022-08-21T15:04:42.854Z,27.39
2022-08-21T15:07:11.044Z,27.38
2022-08-21T15:09:40.607Z,27.23
2022-08-21T15:12:11.007Z,27.04
2022-08-21T15:14:42.277Z,26.78
2022-08-21T15:17:11.768Z,26.76
2022-08-21T15:19:40.610Z,26.76
2022-08-21T15:22:15.540Z,26.76
2022-08-21T15:24:52.485Z,26.74
2022-08-21T15:27:21.501Z,26.82
2022-08-21T15:29:49.643Z,26.66
2022-08-21T15:32:22.139Z,26.60
2022-08-21T15:34:51.568Z,26.59
2022-08-21T15:37:20.513Z,26.68
2022-08-21T15:39:53.997Z,26.38
2022-08-21T15:42:24.998Z,26.64
2022-08-21T15:44:55.139Z,26.40
2022-08-21T15:47:27.771Z,26.20
2022-08-21T15:49:55.979Z,26.27
2022-08-21T15:52:25.071Z,26.35
2022-08-21T15:54:53.579Z,26.38
2022-08-21T15:57:26.385Z,25.99
2022-08-21T15:59:58.369Z,26.09
2022-08-21T16:02:28.629Z,26.07
2022-08-21T16:04:56.823Z,25.88
2022-08-21T16:07:25.142Z,25.79
2022-08-21T16:09:53.498Z,25.69
2022-08-21T16:12:26.890Z,25.62
2022-08-21T16:14:55.772Z,25.52
2022-08-21T16:17:27.309Z,25.47
2022-08-21T16:19:57.130Z,25.34
2022-08-21T16:22:26.421Z,25.33
2022-08-21T16:25:09.780Z,25.09
2022-08-21T16:27:39.778Z,24.94
2022-08-21T16:30:09.736Z,24.82
2022-08-21T16:32:38.060Z,24.83
2022-08-21T16:35:06.908Z,24.86
2022-08-21T16:37:34.996Z,24.75
2022-08-21T16:40:03.338Z,24.78
2022-08-21T16:42:31.579Z,24.66
2022-08-21T16:45:03.352Z,24.66
2022-08-21T16:47:31.817Z,24.71
2022-08-21T16:49:59.962Z,24.63
2022-08-21T16:52:28.199Z,24.55
2022-08-21T16:54:56.525Z,24.53
2022-08-21T16:57:25.757Z,24.45
2022-08-21T16:59:54.049Z,24.40
2022-08-21T17:02:31.285Z,24.44
2022-08-21T17:04:59.574Z,24.46
2022-08-21T17:07:27.835Z,24.43
2022-08-21T17:09:56.266Z,24.33
2022-08-21T17:12:24.850Z,24.38
2022-08-21T17:14:53.338Z,24.44
2022-08-21T17:17:21.684Z,24.37
2022-08-21T17:19:51.267Z,24.36
2022-08-21T17:22:19.729Z,24.33
2022-08-21T17:24:48.274Z,24.34
2022-08-21T17:27:16.520Z,24.35
2022-08-21T17:29:44.755Z,24.30
2022-08-21T17:32:20.111Z,24.35
2022-08-21T17:34:48.319Z,24.38
2022-08-21T17:37:17.953Z,24.26
2022-08-21T17:39:47.613Z,24.18
2022-08-21T17:42:16.062Z,24.20
2022-08-21T17:44:46.800Z,24.14
2022-08-21T17:47:15.740Z,24.13
2022-08-21T17:49:43.883Z,24.19
2022-08-21T17:52:12.061Z,24.20
2022-08-21T17:54:42.007Z,24.13
2022-08-21T17:57:16.451Z,24.12
2022-08-21T17:59:44.768Z,24.01
2022-08-21T18:02:20.055Z,24.05
2022-08-21T18:04:50.565Z,24.04
2022-08-21T18:07:30.798Z,24.10
2022-08-21T18:10:02.679Z,24.14
2022-08-21T18:12:31.918Z,24.09
2022-08-21T18:15:01.268Z,24.06
2022-08-21T18:17:33.278Z,24.14
2022-08-21T18:20:02.129Z,24.08
2022-08-21T18:22:30.333Z,24.10
2022-08-21T18:24:58.602Z,24.05
2022-08-21T18:27:29.815Z,24.05
2022-08-21T18:30:00.357Z,24.04
2022-08-21T18:32:32.151Z,24.01
2022-08-21T18:35:02.601Z,23.91
2022-08-21T18:37:31.417Z,23.88
2022-08-21T18:40:00.661Z,23.80
2022-08-21T18:42:40.120Z,23.86
2022-08-21T18:45:13.513Z,24.02
2022-08-21T18:47:45.641Z,23.99
2022-08-21T18:50:17.579Z,23.97
2022-08-21T18:52:52.538Z,23.87
2022-08-21T18:55:22.641Z,23.73
2022-08-21T18:57:52.359Z,23.60
2022-08-21T19:00:23.370Z,23.54
2022-08-21T19:02:52.557Z,23.49
2022-08-21T19:05:23.159Z,23.39
2022-08-21T19:07:51.703Z,23.39
2022-08-21T19:10:27.820Z,23.40
2022-08-21T19:12:59.917Z,23.35
2022-08-21T19:15:29.803Z,23.42
2022-08-21T19:17:58.789Z,23.39
2022-08-21T19:20:34.541Z,23.41
2022-08-21T19:23:04.348Z,23.41
2022-08-21T19:25:34.498Z,23.45
2022-08-21T19:28:10.902Z,23.43
2022-08-21T19:30:41.047Z,23.34
2022-08-21T19:33:11.405Z,23.34
2022-08-21T19:35:52.473Z,23.33
2022-08-21T19:38:21.287Z,23.33
2022-08-21T19:40:49.776Z,23.33
2022-08-21T19:43:23.193Z,23.30
2022-08-21T19:45:56.456Z,23.23
2022-08-21T19:48:25.533Z,23.25
2022-08-21T19:50:54.713Z,23.22
2022-08-21T19:53:23.359Z,23.14
2022-08-21T19:55:51.635Z,23.16
2022-08-21T19:58:34.357Z,23.15
2022-08-21T20:01:03.515Z,23.23
2022-08-21T20:03:39.597Z,23.25
2022-08-21T20:06:11.985Z,23.19
2022-08-21T20:08:40.329Z,23.20
2022-08-21T20:11:08.806Z,23.06
2022-08-21T20:13:38.687Z,22.96
2022-08-21T20:16:15.322Z,22.90
2022-08-21T20:18:44.126Z,22.85
2022-08-21T20:21:13.396Z,22.82
2022-08-21T20:23:48.786Z,22.80
2022-08-21T20:26:17.749Z,22.85
2022-08-21T20:28:50.470Z,22.82
2022-08-21T20:31:20.612Z,22.90
2022-08-21T20:33:51.030Z,22.88
2022-08-21T20:36:19.633Z,22.77
2022-08-21T20:38:48.321Z,22.76
2022-08-21T20:41:30.229Z,22.78
2022-08-21T20:44:05.470Z,22.90
2022-08-21T20:46:37.496Z,22.79
2022-08-21T20:49:09.472Z,22.73
2022-08-21T20:51:41.620Z,22.67
2022-08-21T20:54:20.884Z,22.73
2022-08-21T20:56:54.560Z,22.86
2022-08-21T20:59:50.650Z,22.82
2022-08-21T21:02:26.729Z,22.88
2022-08-21T21:05:02.105Z,22.81
2022-08-21T21:07:39.833Z,22.81
2022-08-21T21:10:13.883Z,22.73
2022-08-21T21:12:56.798Z,22.65
2022-08-21T21:15:31.149Z,22.73
2022-08-21T21:18:06.473Z,22.79
2022-08-21T21:20:40.355Z,22.73
2022-08-21T21:23:20.846Z,22.83
2022-08-21T21:25:57.324Z,22.95
2022-08-21T21:28:33.046Z,22.91
2022-08-21T21:31:04.925Z,22.96
2022-08-21T21:33:33.102Z,22.97
2022-08-21T21:36:13.668Z,22.93
2022-08-21T21:38:51.803Z,22.92
2022-08-21T21:41:35.197Z,22.92
2022-08-21T21:44:16.687Z,22.92
2022-08-21T21:46:53.967Z,22.85
2022-08-21T21:49:54.068Z,22.82
2022-08-21T21:52:42.302Z,22.73
2022-08-21T21:55:25.250Z,22.69
2022-08-21T22:01:08.553Z,22.64
2022-08-21T22:03:50.394Z,22.53
2022-08-21T22:06:36.302Z,22.50
2022-08-21T22:09:13.253Z,22.44
2022-08-21T22:11:55.575Z,22.43
2022-08-21T22:14:31.485Z,22.37
2022-08-21T22:17:06.696Z,22.41
2022-08-21T22:19:43.173Z,22.42
2022-08-21T22:22:16.941Z,22.41
2022-08-21T22:24:49.776Z,22.39
2022-08-21T22:27:22.721Z,22.43
2022-08-21T22:29:53.505Z,22.36
2022-08-21T22:32:28.612Z,22.45
2022-08-21T22:35:09.452Z,22.51
2022-08-21T22:37:39.689Z,22.40
2022-08-21T22:40:10.431Z,22.45
2022-08-21T22:42:39.178Z,22.55
2022-08-21T22:45:12.170Z,22.53
2022-08-21T22:47:44.095Z,22.47
2022-08-21T22:50:22.065Z,22.41
2022-08-21T22:52:57.071Z,22.46
2022-08-21T22:55:29.297Z,22.55
2022-08-21T22:58:04.655Z,22.52
2022-08-21T23:00:50.667Z,22.54
2022-08-21T23:03:32.627Z,22.48
2022-08-21T23:06:12.713Z,22.42
2022-08-21T23:08:41.397Z,22.36
2022-08-21T23:11:17.221Z,22.23
2022-08-21T23:13:48.439Z,22.25
2022-08-21T23:16:31.475Z,22.17
2022-08-21T23:19:17.523Z,22.21
2022-08-21T23:21:57.857Z,22.21
2022-08-21T23:24:59.761Z,22.18
2022-08-21T23:27:52.864Z,22.17
2022-08-21T23:30:31.727Z,22.04
2022-08-21T23:33:14.713Z,22.14
2022-08-21T23:36:05.916Z,22.05
2022-08-21T23:38:49.093Z,22.03
2022-08-21T23:41:34.239Z,22.09
2022-08-21T23:44:22.114Z,22.13
2022-08-21T23:47:10.654Z,21.94
2022-08-21T23:49:48.834Z,21.92
2022-08-21T23:52:34.144Z,22.08
2022-08-21T23:55:24.795Z,22.05
2022-08-21T23:58:07.519Z,22.07
